This is the latest recevied weather packets stored in our database for station/object AC0MR. If no packets are shown the sender has not sent any weather packets the latest 10 day(s).
| Time | Temp. | Humidity | Pressure | Rain* | Wind** | Luminosity | Snow |
|---|---|---|---|---|---|---|---|
| 1777514118 | 8.89° C | 54% | 1016.7 hPa | 0 mm | - | 0 W/m² | - |
| 1777513518 | 9.44° C | 53% | 1016.5 hPa | 0 mm | - | 0 W/m² | - |
| 1777512919 | 10° C | 51% | 1016.4 hPa | 0 mm | - | 0 W/m² | - |
| 1777512318 | 10.56° C | 49% | 1016.3 hPa | 0 mm | - | 0 W/m² | - |
| 1777511719 | 10.56° C | 48% | 1016.5 hPa | 0 mm | - | 0 W/m² | - |
| 1777511118 | 11.11° C | 45% | 1016.4 hPa | 0 mm | - | 2 W/m² | - |
| 1777510518 | 11.11° C | 43% | 1016.4 hPa | 0 mm | - | 10 W/m² | - |
| 1777509918 | 11.67° C | 42% | 1016.3 hPa | 0 mm | - | 15 W/m² | - |
| 1777509318 | 11.67° C | 41% | 1016.2 hPa | 0 mm | - | 20 W/m² | - |
| 1777508718 | 11.67° C | 41% | 1016.1 hPa | 0 mm | - | 25 W/m² | - |
| 1777508118 | 12.22° C | 40% | 1016.2 hPa | 0 mm | - | 30 W/m² | - |
| 1777507518 | 12.22° C | 39% | 1016 hPa | 0 mm | - | 34 W/m² | - |
| 1777506918 | 12.78° C | 39% | 1016.1 hPa | 0 mm | - | 40 W/m² | - |
| 1777506318 | 12.78° C | 37% | 1016.1 hPa | 0 mm | - | 80 W/m² | - |
| 1777505718 | 12.78° C | 37% | 1015.9 hPa | 0 mm | - | 133 W/m² | - |
| 1777505118 | 13.33° C | 36% | 1016.1 hPa | 0 mm | - | 57 W/m² | - |
| 1777504518 | 13.33° C | 36% | 1016.1 hPa | 0 mm | - | 305 W/m² | - |
| 1777503918 | 13.33° C | 36% | 1016.2 hPa | 0 mm | - | 299 W/m² | - |
| 1777503318 | 13.33° C | 38% | 1016.1 hPa | 0 mm | - | 354 W/m² | - |
| 1777502718 | 13.33° C | 37% | 1016.1 hPa | 0 mm | - | 454 W/m² | - |
| 1777502118 | 13.89° C | 36% | 1016.1 hPa | 0 mm | - | 202 W/m² | - |
| 1777501518 | 13.33° C | 37% | 1016 hPa | 0 mm | - | 512 W/m² | - |
| 1777500918 | 13.33° C | 34% | 1016 hPa | 0 mm | - | 125 W/m² | - |
| 1777500318 | 13.89° C | 34% | 1016.1 hPa | 0 mm | - | 114 W/m² | - |
| 1777499718 | 13.89° C | 36% | 1016 hPa | 0 mm | - | 650 W/m² | - |
* Rain latest hour (hover to see other rain measurements)
** Current wind speed in m/s (hover to see current wind gust speed)